sensor_id;sensor_type;location;lat;lon;timestamp;P1;durP1;ratioP1;P2;durP2;ratioP2
60203;SDS011;46068;52.132;4.618;2023-03-17T00:02:12;5.97;;;2.40;;
60203;SDS011;46068;52.132;4.618;2023-03-17T00:04:38;5.82;;;2.67;;
60203;SDS011;46068;52.132;4.618;2023-03-17T00:07:04;5.80;;;2.30;;
60203;SDS011;46068;52.132;4.618;2023-03-17T00:09:32;3.70;;;2.58;;
60203;SDS011;46068;52.132;4.618;2023-03-17T00:11:58;4.53;;;2.53;;
60203;SDS011;46068;52.132;4.618;2023-03-17T00:14:26;5.95;;;2.63;;
60203;SDS011;46068;52.132;4.618;2023-03-17T00:16:52;3.92;;;2.30;;
60203;SDS011;46068;52.132;4.618;2023-03-17T00:19:20;3.70;;;2.28;;
60203;SDS011;46068;52.132;4.618;2023-03-17T00:21:48;3.90;;;2.15;;
60203;SDS011;46068;52.132;4.618;2023-03-17T00:24:14;6.32;;;2.40;;
60203;SDS011;46068;52.132;4.618;2023-03-17T00:26:41;4.68;;;2.20;;
60203;SDS011;46068;52.132;4.618;2023-03-17T00:29:07;4.00;;;2.50;;
60203;SDS011;46068;52.132;4.618;2023-03-17T00:31:35;4.55;;;2.40;;
60203;SDS011;46068;52.132;4.618;2023-03-17T00:34:02;3.95;;;2.40;;
60203;SDS011;46068;52.132;4.618;2023-03-17T00:36:29;3.35;;;2.15;;
60203;SDS011;46068;52.132;4.618;2023-03-17T00:38:56;4.85;;;2.20;;
60203;SDS011;46068;52.132;4.618;2023-03-17T00:41:22;3.63;;;2.23;;
60203;SDS011;46068;52.132;4.618;2023-03-17T00:43:48;4.60;;;2.40;;
60203;SDS011;46068;52.132;4.618;2023-03-17T00:46:15;5.60;;;2.30;;
60203;SDS011;46068;52.132;4.618;2023-03-17T00:48:45;3.92;;;2.28;;
60203;SDS011;46068;52.132;4.618;2023-03-17T00:51:12;4.95;;;2.50;;
60203;SDS011;46068;52.132;4.618;2023-03-17T00:53:40;5.10;;;2.30;;
60203;SDS011;46068;52.132;4.618;2023-03-17T00:56:08;4.35;;;2.50;;
60203;SDS011;46068;52.132;4.618;2023-03-17T00:58:36;4.00;;;2.50;;
60203;SDS011;46068;52.132;4.618;2023-03-17T01:01:02;4.93;;;2.50;;
60203;SDS011;46068;52.132;4.618;2023-03-17T01:03:29;5.38;;;2.53;;
60203;SDS011;46068;52.132;4.618;2023-03-17T01:05:58;4.78;;;2.33;;
60203;SDS011;46068;52.132;4.618;2023-03-17T01:08:25;4.13;;;2.30;;
60203;SDS011;46068;52.132;4.618;2023-03-17T01:10:54;5.78;;;2.50;;
60203;SDS011;46068;52.132;4.618;2023-03-17T01:13:20;4.47;;;2.53;;
60203;SDS011;46068;52.132;4.618;2023-03-17T01:15:49;4.45;;;2.40;;
60203;SDS011;46068;52.132;4.618;2023-03-17T01:18:16;4.75;;;2.47;;
60203;SDS011;46068;52.132;4.618;2023-03-17T01:20:43;4.43;;;2.30;;
60203;SDS011;46068;52.132;4.618;2023-03-17T01:23:11;5.90;;;2.60;;
60203;SDS011;46068;52.132;4.618;2023-03-17T01:25:38;6.05;;;2.85;;
60203;SDS011;46068;52.132;4.618;2023-03-17T01:28:05;3.70;;;2.45;;
60203;SDS011;46068;52.132;4.618;2023-03-17T01:30:33;4.72;;;2.60;;
60203;SDS011;46068;52.132;4.618;2023-03-17T01:32:59;4.80;;;2.60;;
60203;SDS011;46068;52.132;4.618;2023-03-17T01:35:26;4.30;;;2.47;;
60203;SDS011;46068;52.132;4.618;2023-03-17T01:37:54;5.45;;;2.50;;
60203;SDS011;46068;52.132;4.618;2023-03-17T01:40:23;4.28;;;2.50;;
60203;SDS011;46068;52.132;4.618;2023-03-17T01:42:51;4.43;;;2.30;;
60203;SDS011;46068;52.132;4.618;2023-03-17T01:48:03;5.35;;;2.40;;
60203;SDS011;46068;52.132;4.618;2023-03-17T01:50:29;5.22;;;2.40;;
60203;SDS011;46068;52.132;4.618;2023-03-17T01:52:56;5.22;;;2.50;;
60203;SDS011;46068;52.132;4.618;2023-03-17T01:55:24;4.47;;;2.45;;
60203;SDS011;46068;52.132;4.618;2023-03-17T01:57:51;4.55;;;2.50;;
60203;SDS011;46068;52.132;4.618;2023-03-17T02:00:19;4.05;;;2.60;;
60203;SDS011;46068;52.132;4.618;2023-03-17T02:02:47;5.22;;;2.42;;
60203;SDS011;46068;52.132;4.618;2023-03-17T02:05:14;5.20;;;2.67;;
60203;SDS011;46068;52.132;4.618;2023-03-17T02:07:42;4.75;;;2.30;;
60203;SDS011;46068;52.132;4.618;2023-03-17T02:10:09;5.20;;;2.42;;
60203;SDS011;46068;52.132;4.618;2023-03-17T02:12:38;3.70;;;2.28;;
60203;SDS011;46068;52.132;4.618;2023-03-17T02:15:05;4.30;;;2.40;;
60203;SDS011;46068;52.132;4.618;2023-03-17T02:17:32;6.88;;;2.65;;
60203;SDS011;46068;52.132;4.618;2023-03-17T02:20:08;4.97;;;2.60;;
60203;SDS011;46068;52.132;4.618;2023-03-17T02:22:38;3.25;;;1.90;;
60203;SDS011;46068;52.132;4.618;2023-03-17T02:25:04;4.93;;;2.42;;
60203;SDS011;46068;52.132;4.618;2023-03-17T02:27:32;3.40;;;2.38;;
60203;SDS011;46068;52.132;4.618;2023-03-17T02:29:59;4.40;;;2.25;;
60203;SDS011;46068;52.132;4.618;2023-03-17T02:32:26;4.05;;;2.13;;
60203;SDS011;46068;52.132;4.618;2023-03-17T02:34:52;6.90;;;2.23;;
60203;SDS011;46068;52.132;4.618;2023-03-17T02:37:19;5.05;;;2.22;;
60203;SDS011;46068;52.132;4.618;2023-03-17T02:39:46;5.20;;;2.40;;
60203;SDS011;46068;52.132;4.618;2023-03-17T02:42:13;4.93;;;2.20;;
60203;SDS011;46068;52.132;4.618;2023-03-17T02:44:39;4.13;;;1.98;;
60203;SDS011;46068;52.132;4.618;2023-03-17T02:47:06;4.40;;;2.30;;
60203;SDS011;46068;52.132;4.618;2023-03-17T02:49:32;4.35;;;2.30;;
60203;SDS011;46068;52.132;4.618;2023-03-17T02:51:59;5.28;;;2.30;;
60203;SDS011;46068;52.132;4.618;2023-03-17T02:54:25;3.42;;;2.10;;
60203;SDS011;46068;52.132;4.618;2023-03-17T02:56:53;4.63;;;2.40;;
60203;SDS011;46068;52.132;4.618;2023-03-17T02:59:19;5.22;;;2.40;;
60203;SDS011;46068;52.132;4.618;2023-03-17T03:01:45;4.85;;;2.40;;
60203;SDS011;46068;52.132;4.618;2023-03-17T03:04:13;4.60;;;2.50;;
60203;SDS011;46068;52.132;4.618;2023-03-17T03:06:39;5.28;;;2.50;;
60203;SDS011;46068;52.132;4.618;2023-03-17T03:09:06;3.83;;;2.30;;
60203;SDS011;46068;52.132;4.618;2023-03-17T03:11:33;4.78;;;2.38;;
60203;SDS011;46068;52.132;4.618;2023-03-17T03:14:01;3.90;;;2.40;;
60203;SDS011;46068;52.132;4.618;2023-03-17T03:16:27;4.20;;;2.10;;
60203;SDS011;46068;52.132;4.618;2023-03-17T03:18:54;5.37;;;2.57;;
60203;SDS011;46068;52.132;4.618;2023-03-17T03:21:20;3.90;;;2.30;;
60203;SDS011;46068;52.132;4.618;2023-03-17T03:23:47;5.15;;;2.20;;
60203;SDS011;46068;52.132;4.618;2023-03-17T03:26:13;4.25;;;2.30;;
60203;SDS011;46068;52.132;4.618;2023-03-17T03:28:40;4.35;;;1.90;;
60203;SDS011;46068;52.132;4.618;2023-03-17T03:31:08;4.63;;;2.25;;
60203;SDS011;46068;52.132;4.618;2023-03-17T03:33:34;4.57;;;2.00;;
60203;SDS011;46068;52.132;4.618;2023-03-17T03:36:01;5.00;;;2.33;;
60203;SDS011;46068;52.132;4.618;2023-03-17T03:38:27;4.57;;;2.10;;
60203;SDS011;46068;52.132;4.618;2023-03-17T03:40:54;3.97;;;2.08;;
60203;SDS011;46068;52.132;4.618;2023-03-17T03:43:20;4.22;;;2.20;;
60203;SDS011;46068;52.132;4.618;2023-03-17T03:45:47;6.22;;;2.30;;
60203;SDS011;46068;52.132;4.618;2023-03-17T03:48:14;4.78;;;2.20;;
60203;SDS011;46068;52.132;4.618;2023-03-17T03:50:41;4.00;;;2.20;;
60203;SDS011;46068;52.132;4.618;2023-03-17T03:53:07;4.55;;;2.10;;
60203;SDS011;46068;52.132;4.618;2023-03-17T03:55:33;5.30;;;2.45;;
60203;SDS011;46068;52.132;4.618;2023-03-17T03:58:00;4.15;;;2.13;;
60203;SDS011;46068;52.132;4.618;2023-03-17T04:00:26;4.03;;;2.30;;
60203;SDS011;46068;52.132;4.618;2023-03-17T04:02:52;3.92;;;2.15;;
60203;SDS011;46068;52.132;4.618;2023-03-17T04:05:20;4.80;;;2.25;;
60203;SDS011;46068;52.132;4.618;2023-03-17T04:07:47;4.03;;;2.33;;
60203;SDS011;46068;52.132;4.618;2023-03-17T04:10:13;4.35;;;2.22;;
60203;SDS011;46068;52.132;4.618;2023-03-17T04:12:40;4.43;;;2.17;;
60203;SDS011;46068;52.132;4.618;2023-03-17T04:15:07;4.30;;;2.15;;
60203;SDS011;46068;52.132;4.618;2023-03-17T04:17:35;3.40;;;2.03;;
60203;SDS011;46068;52.132;4.618;2023-03-17T04:20:02;3.72;;;2.20;;
60203;SDS011;46068;52.132;4.618;2023-03-17T04:22:29;4.47;;;2.20;;
60203;SDS011;46068;52.132;4.618;2023-03-17T04:24:56;2.90;;;1.97;;
60203;SDS011;46068;52.132;4.618;2023-03-17T04:27:22;4.78;;;2.35;;
60203;SDS011;46068;52.132;4.618;2023-03-17T04:29:48;4.30;;;2.20;;
60203;SDS011;46068;52.132;4.618;2023-03-17T04:32:14;5.93;;;2.42;;
60203;SDS011;46068;52.132;4.618;2023-03-17T04:34:41;5.88;;;2.60;;
60203;SDS011;46068;52.132;4.618;2023-03-17T04:37:07;5.18;;;2.30;;
60203;SDS011;46068;52.132;4.618;2023-03-17T04:39:35;5.20;;;2.23;;
60203;SDS011;46068;52.132;4.618;2023-03-17T04:42:02;3.92;;;2.25;;
60203;SDS011;46068;52.132;4.618;2023-03-17T04:44:28;3.40;;;2.00;;
60203;SDS011;46068;52.132;4.618;2023-03-17T04:46:55;4.95;;;2.30;;
60203;SDS011;46068;52.132;4.618;2023-03-17T04:49:21;3.58;;;2.20;;
60203;SDS011;46068;52.132;4.618;2023-03-17T04:51:47;4.22;;;2.10;;
60203;SDS011;46068;52.132;4.618;2023-03-17T04:54:13;3.92;;;2.20;;
60203;SDS011;46068;52.132;4.618;2023-03-17T04:56:41;5.78;;;2.30;;
60203;SDS011;46068;52.132;4.618;2023-03-17T04:59:08;4.07;;;2.05;;
60203;SDS011;46068;52.132;4.618;2023-03-17T05:01:34;5.00;;;2.08;;
60203;SDS011;46068;52.132;4.618;2023-03-17T05:04:00;3.60;;;2.03;;
60203;SDS011;46068;52.132;4.618;2023-03-17T05:06:29;3.03;;;2.03;;
60203;SDS011;46068;52.132;4.618;2023-03-17T05:08:55;3.28;;;2.17;;
60203;SDS011;46068;52.132;4.618;2023-03-17T05:11:22;3.17;;;2.03;;
60203;SDS011;46068;52.132;4.618;2023-03-17T05:13:49;4.47;;;2.20;;
60203;SDS011;46068;52.132;4.618;2023-03-17T05:16:16;4.10;;;2.03;;
60203;SDS011;46068;52.132;4.618;2023-03-17T05:18:42;3.97;;;2.17;;
60203;SDS011;46068;52.132;4.618;2023-03-17T05:21:09;4.35;;;2.30;;
60203;SDS011;46068;52.132;4.618;2023-03-17T05:23:35;4.40;;;2.15;;
60203;SDS011;46068;52.132;4.618;2023-03-17T05:26:02;3.50;;;2.20;;
60203;SDS011;46068;52.132;4.618;2023-03-17T05:28:28;4.43;;;2.30;;
60203;SDS011;46068;52.132;4.618;2023-03-17T05:30:56;3.90;;;1.98;;
60203;SDS011;46068;52.132;4.618;2023-03-17T05:33:22;4.43;;;2.10;;
60203;SDS011;46068;52.132;4.618;2023-03-17T05:35:49;5.25;;;2.00;;
60203;SDS011;46068;52.132;4.618;2023-03-17T05:38:15;3.65;;;2.28;;
60203;SDS011;46068;52.132;4.618;2023-03-17T05:40:42;5.70;;;2.00;;
60203;SDS011;46068;52.132;4.618;2023-03-17T05:43:08;5.07;;;2.40;;
60203;SDS011;46068;52.132;4.618;2023-03-17T05:45:34;5.05;;;2.30;;
60203;SDS011;46068;52.132;4.618;2023-03-17T05:48:02;4.53;;;2.40;;
60203;SDS011;46068;52.132;4.618;2023-03-17T05:50:29;5.45;;;2.60;;
60203;SDS011;46068;52.132;4.618;2023-03-17T05:52:55;5.05;;;2.30;;
60203;SDS011;46068;52.132;4.618;2023-03-17T05:55:21;5.13;;;2.30;;
60203;SDS011;46068;52.132;4.618;2023-03-17T05:57:48;3.95;;;2.30;;
60203;SDS011;46068;52.132;4.618;2023-03-17T06:00:14;6.50;;;2.40;;
60203;SDS011;46068;52.132;4.618;2023-03-17T06:02:42;4.75;;;2.40;;
60203;SDS011;46068;52.132;4.618;2023-03-17T06:05:10;4.43;;;2.53;;
60203;SDS011;46068;52.132;4.618;2023-03-17T06:07:37;4.30;;;2.35;;
60203;SDS011;46068;52.132;4.618;2023-03-17T06:10:04;5.25;;;2.35;;
60203;SDS011;46068;52.132;4.618;2023-03-17T06:12:30;12.15;;;6.82;;
60203;SDS011;46068;52.132;4.618;2023-03-17T06:14:57;4.93;;;2.50;;
60203;SDS011;46068;52.132;4.618;2023-03-17T06:17:23;4.32;;;2.30;;
60203;SDS011;46068;52.132;4.618;2023-03-17T06:19:49;5.40;;;2.40;;
60203;SDS011;46068;52.132;4.618;2023-03-17T06:22:17;6.00;;;2.30;;
60203;SDS011;46068;52.132;4.618;2023-03-17T06:24:43;5.63;;;2.00;;
60203;SDS011;46068;52.132;4.618;2023-03-17T06:27:09;4.87;;;2.40;;
60203;SDS011;46068;52.132;4.618;2023-03-17T06:29:38;6.63;;;2.22;;
60203;SDS011;46068;52.132;4.618;2023-03-17T06:32:04;4.88;;;2.08;;
60203;SDS011;46068;52.132;4.618;2023-03-17T06:34:30;5.05;;;2.20;;
60203;SDS011;46068;52.132;4.618;2023-03-17T06:36:57;7.03;;;2.55;;
60203;SDS011;46068;52.132;4.618;2023-03-17T06:39:25;4.50;;;2.20;;
60203;SDS011;46068;52.132;4.618;2023-03-17T06:41:51;5.73;;;2.60;;
60203;SDS011;46068;52.132;4.618;2023-03-17T06:44:18;7.85;;;2.83;;
60203;SDS011;46068;52.132;4.618;2023-03-17T06:46:44;4.88;;;2.40;;
60203;SDS011;46068;52.132;4.618;2023-03-17T06:49:10;4.47;;;2.33;;
60203;SDS011;46068;52.132;4.618;2023-03-17T06:51:37;6.10;;;2.08;;
60203;SDS011;46068;52.132;4.618;2023-03-17T06:54:04;5.40;;;2.30;;
60203;SDS011;46068;52.132;4.618;2023-03-17T06:56:31;6.47;;;2.25;;
60203;SDS011;46068;52.132;4.618;2023-03-17T06:58:58;4.45;;;2.42;;
60203;SDS011;46068;52.132;4.618;2023-03-17T07:01:24;3.85;;;2.10;;
60203;SDS011;46068;52.132;4.618;2023-03-17T07:03:51;3.55;;;2.00;;
60203;SDS011;46068;52.132;4.618;2023-03-17T07:06:17;5.25;;;2.17;;
60203;SDS011;46068;52.132;4.618;2023-03-17T07:08:43;4.57;;;2.00;;
60203;SDS011;46068;52.132;4.618;2023-03-17T07:11:10;4.33;;;2.20;;
60203;SDS011;46068;52.132;4.618;2023-03-17T07:13:38;6.78;;;2.40;;
60203;SDS011;46068;52.132;4.618;2023-03-17T07:16:05;4.00;;;2.20;;
60203;SDS011;46068;52.132;4.618;2023-03-17T07:18:31;5.00;;;2.23;;
60203;SDS011;46068;52.132;4.618;2023-03-17T07:20:58;5.15;;;2.15;;
60203;SDS011;46068;52.132;4.618;2023-03-17T07:23:25;3.17;;;2.00;;
60203;SDS011;46068;52.132;4.618;2023-03-17T07:25:51;4.78;;;2.45;;
60203;SDS011;46068;52.132;4.618;2023-03-17T07:28:17;4.85;;;2.33;;
60203;SDS011;46068;52.132;4.618;2023-03-17T07:30:47;5.70;;;2.33;;
60203;SDS011;46068;52.132;4.618;2023-03-17T07:33:14;6.75;;;2.40;;
60203;SDS011;46068;52.132;4.618;2023-03-17T07:35:41;4.78;;;2.03;;
60203;SDS011;46068;52.132;4.618;2023-03-17T07:38:08;5.67;;;2.20;;
60203;SDS011;46068;52.132;4.618;2023-03-17T07:40:34;3.13;;;2.00;;
60203;SDS011;46068;52.132;4.618;2023-03-17T07:43:00;5.00;;;2.33;;
60203;SDS011;46068;52.132;4.618;2023-03-17T07:45:28;5.38;;;2.38;;
60203;SDS011;46068;52.132;4.618;2023-03-17T07:47:56;5.22;;;2.50;;
60203;SDS011;46068;52.132;4.618;2023-03-17T07:50:22;6.75;;;2.47;;
60203;SDS011;46068;52.132;4.618;2023-03-17T07:52:49;7.65;;;2.50;;
60203;SDS011;46068;52.132;4.618;2023-03-17T07:55:15;4.93;;;2.25;;
60203;SDS011;46068;52.132;4.618;2023-03-17T07:57:41;4.68;;;2.60;;
60203;SDS011;46068;52.132;4.618;2023-03-17T08:00:08;6.10;;;2.42;;
60203;SDS011;46068;52.132;4.618;2023-03-17T08:02:37;6.27;;;2.57;;
60203;SDS011;46068;52.132;4.618;2023-03-17T08:05:05;7.55;;;2.67;;
60203;SDS011;46068;52.132;4.618;2023-03-17T08:07:32;6.37;;;2.60;;
60203;SDS011;46068;52.132;4.618;2023-03-17T08:10:00;5.47;;;2.60;;
60203;SDS011;46068;52.132;4.618;2023-03-17T08:12:27;6.18;;;2.58;;
60203;SDS011;46068;52.132;4.618;2023-03-17T08:14:53;5.72;;;2.60;;
60203;SDS011;46068;52.132;4.618;2023-03-17T08:17:20;7.13;;;2.55;;
60203;SDS011;46068;52.132;4.618;2023-03-17T08:19:50;5.17;;;2.50;;
60203;SDS011;46068;52.132;4.618;2023-03-17T08:22:18;7.07;;;2.55;;
60203;SDS011;46068;52.132;4.618;2023-03-17T08:24:44;6.65;;;2.70;;
60203;SDS011;46068;52.132;4.618;2023-03-17T08:27:11;7.97;;;2.88;;
60203;SDS011;46068;52.132;4.618;2023-03-17T08:29:37;9.90;;;3.00;;
60203;SDS011;46068;52.132;4.618;2023-03-17T08:32:04;6.38;;;2.75;;
60203;SDS011;46068;52.132;4.618;2023-03-17T08:34:31;10.88;;;3.22;;
60203;SDS011;46068;52.132;4.618;2023-03-17T08:36:57;9.93;;;3.30;;
60203;SDS011;46068;52.132;4.618;2023-03-17T08:39:26;6.83;;;3.17;;
60203;SDS011;46068;52.132;4.618;2023-03-17T08:41:52;7.47;;;3.25;;
60203;SDS011;46068;52.132;4.618;2023-03-17T08:44:18;8.00;;;3.17;;
60203;SDS011;46068;52.132;4.618;2023-03-17T08:46:45;8.20;;;3.40;;
60203;SDS011;46068;52.132;4.618;2023-03-17T08:49:13;6.45;;;2.90;;
60203;SDS011;46068;52.132;4.618;2023-03-17T08:51:40;10.20;;;3.25;;
60203;SDS011;46068;52.132;4.618;2023-03-17T08:54:08;8.85;;;3.40;;
60203;SDS011;46068;52.132;4.618;2023-03-17T08:56:36;6.60;;;3.20;;
60203;SDS011;46068;52.132;4.618;2023-03-17T08:59:02;9.43;;;3.60;;
60203;SDS011;46068;52.132;4.618;2023-03-17T09:01:29;7.80;;;3.47;;
60203;SDS011;46068;52.132;4.618;2023-03-17T09:03:56;8.77;;;3.60;;
60203;SDS011;46068;52.132;4.618;2023-03-17T09:06:22;7.47;;;3.47;;
60203;SDS011;46068;52.132;4.618;2023-03-17T09:08:49;7.25;;;3.58;;
60203;SDS011;46068;52.132;4.618;2023-03-17T09:11:22;8.40;;;3.55;;
60203;SDS011;46068;52.132;4.618;2023-03-17T09:13:50;7.00;;;3.17;;
60203;SDS011;46068;52.132;4.618;2023-03-17T09:16:17;9.20;;;3.47;;
60203;SDS011;46068;52.132;4.618;2023-03-17T09:18:43;7.53;;;3.67;;
60203;SDS011;46068;52.132;4.618;2023-03-17T09:21:10;7.45;;;3.50;;
60203;SDS011;46068;52.132;4.618;2023-03-17T09:23:36;11.57;;;3.95;;
60203;SDS011;46068;52.132;4.618;2023-03-17T09:26:03;7.90;;;3.47;;
60203;SDS011;46068;52.132;4.618;2023-03-17T09:28:29;8.57;;;3.50;;
60203;SDS011;46068;52.132;4.618;2023-03-17T09:30:58;8.32;;;3.63;;
60203;SDS011;46068;52.132;4.618;2023-03-17T09:33:25;7.68;;;3.35;;
60203;SDS011;46068;52.132;4.618;2023-03-17T09:35:51;7.82;;;3.55;;
60203;SDS011;46068;52.132;4.618;2023-03-17T09:38:18;8.05;;;3.63;;
60203;SDS011;46068;52.132;4.618;2023-03-17T09:40:45;8.60;;;3.58;;
60203;SDS011;46068;52.132;4.618;2023-03-17T09:43:15;6.57;;;3.20;;
60203;SDS011;46068;52.132;4.618;2023-03-17T09:45:44;7.80;;;3.33;;
60203;SDS011;46068;52.132;4.618;2023-03-17T09:48:15;8.88;;;3.22;;
60203;SDS011;46068;52.132;4.618;2023-03-17T09:50:46;7.65;;;3.35;;
60203;SDS011;46068;52.132;4.618;2023-03-17T09:53:15;7.80;;;3.50;;
60203;SDS011;46068;52.132;4.618;2023-03-17T09:55:43;8.73;;;3.60;;
60203;SDS011;46068;52.132;4.618;2023-03-17T09:58:09;5.55;;;3.22;;
60203;SDS011;46068;52.132;4.618;2023-03-17T10:00:36;6.25;;;3.90;;
60203;SDS011;46068;52.132;4.618;2023-03-17T10:03:04;6.00;;;3.25;;
60203;SDS011;46068;52.132;4.618;2023-03-17T10:05:36;8.55;;;3.50;;
60203;SDS011;46068;52.132;4.618;2023-03-17T10:08:04;7.57;;;3.47;;
60203;SDS011;46068;52.132;4.618;2023-03-17T10:10:33;9.73;;;3.70;;
60203;SDS011;46068;52.132;4.618;2023-03-17T10:13:05;9.95;;;3.70;;
60203;SDS011;46068;52.132;4.618;2023-03-17T10:15:33;8.05;;;3.30;;
60203;SDS011;46068;52.132;4.618;2023-03-17T10:18:07;6.00;;;3.63;;
60203;SDS011;46068;52.132;4.618;2023-03-17T10:20:35;5.45;;;3.38;;
